UAL586 KDEN-KMCI
Flight info
| Callsign | UAL586 |
|---|---|
| Flight time | 1h 7m |
| Altitude | 37000 |
| Route | EMMYS8 ZIRKL DPEAK JSONN4 |
| Aircraft | A319/M-SDE3FGHIRWY/LB1 |
Departure
| Time | 2026-05-07 04:17 |
|---|---|
| Airport | Denver International Airport (KDEN) |
Arrival
| Time | 2026-05-07 05:25 |
|---|---|
| Airport | Kansas City International Airport (KMCI) |
| Time | Latitude | Longitude | Altitude | Speed | Heading |
|---|---|---|---|---|---|
| 2026-05-07 03:41 | 39.85941 | -104.67914 | 5364 ft | 0 kts | 180° |
| 2026-05-07 04:05 | 39.85948 | -104.67914 | 5366 ft | 4 kts | 180° |
| 2026-05-07 04:05 | 39.85975 | -104.67914 | 5364 ft | 4 kts | 180° |
| 2026-05-07 04:05 | 39.85995 | -104.67914 | 5365 ft | 4 kts | 154° |
| 2026-05-07 04:05 | 39.86007 | -104.67937 | 5366 ft | 3 kts | 90° |
| 2026-05-07 04:06 | 39.86007 | -104.67951 | 5364 ft | 0 kts | 90° |
| 2026-05-07 04:10 | 39.86006 | -104.67926 | 5357 ft | 6 kts | 91° |
| 2026-05-07 04:10 | 39.86026 | -104.67851 | 5364 ft | 11 kts | 65° |
| 2026-05-07 04:10 | 39.86060 | -104.67750 | 5366 ft | 13 kts | 67° |
| 2026-05-07 04:10 | 39.86078 | -104.67618 | 5366 ft | 17 kts | 73° |
| 2026-05-07 04:11 | 39.86116 | -104.67465 | 5366 ft | 19 kts | 72° |
| 2026-05-07 04:11 | 39.86132 | -104.67297 | 5366 ft | 19 kts | 90° |
| 2026-05-07 04:11 | 39.86132 | -104.67154 | 5366 ft | 15 kts | 90° |
| 2026-05-07 04:11 | 39.86132 | -104.67017 | 5366 ft | 17 kts | 90° |
| 2026-05-07 04:12 | 39.86131 | -104.66857 | 5366 ft | 18 kts | 90° |
| 2026-05-07 04:12 | 39.86129 | -104.66682 | 5366 ft | 21 kts | 90° |
| 2026-05-07 04:12 | 39.86117 | -104.66536 | 5363 ft | 14 kts | 105° |
| 2026-05-07 04:12 | 39.86108 | -104.66424 | 5366 ft | 13 kts | 90° |
| 2026-05-07 04:13 | 39.86106 | -104.66295 | 5366 ft | 14 kts | 90° |
| 2026-05-07 04:13 | 39.86161 | -104.66227 | 5365 ft | 13 kts | 2° |
| 2026-05-07 04:13 | 39.86259 | -104.66226 | 5365 ft | 15 kts | 0° |
| 2026-05-07 04:13 | 39.86369 | -104.66226 | 5365 ft | 16 kts | 0° |
| 2026-05-07 04:14 | 39.86488 | -104.66224 | 5364 ft | 18 kts | 1° |
| 2026-05-07 04:14 | 39.86619 | -104.66222 | 5365 ft | 19 kts | 0° |
| 2026-05-07 04:14 | 39.86758 | -104.66220 | 5365 ft | 21 kts | 0° |
| 2026-05-07 04:14 | 39.86909 | -104.66218 | 5366 ft | 23 kts | 0° |
| 2026-05-07 04:15 | 39.87069 | -104.66217 | 5365 ft | 22 kts | 1° |
| 2026-05-07 04:15 | 39.87218 | -104.66214 | 5366 ft | 20 kts | 0° |
| 2026-05-07 04:15 | 39.87363 | -104.66213 | 5364 ft | 22 kts | 0° |
| 2026-05-07 04:15 | 39.87518 | -104.66212 | 5364 ft | 22 kts | 0° |
| 2026-05-07 04:16 | 39.87622 | -104.66209 | 5365 ft | 15 kts | 1° |
| 2026-05-07 04:16 | 39.87722 | -104.66207 | 5365 ft | 11 kts | 1° |
| 2026-05-07 04:16 | 39.87761 | -104.66164 | 5366 ft | 10 kts | 91° |
| 2026-05-07 04:16 | 39.87761 | -104.65973 | 5365 ft | 42 kts | 90° |
| 2026-05-07 04:17 | 39.87755 | -104.65370 | 5366 ft | 93 kts | 90° |
| 2026-05-07 04:17 | 39.87747 | -104.64298 | 5360 ft | 144 kts | 90° |
| 2026-05-07 04:17 | 39.87737 | -104.62821 | 5574 ft | 168 kts | 92° |
| 2026-05-07 04:17 | 39.87724 | -104.61317 | 6412 ft | 165 kts | 92° |
| 2026-05-07 04:18 | 39.87711 | -104.59817 | 6995 ft | 167 kts | 92° |
| 2026-05-07 04:18 | 39.87709 | -104.58252 | 7379 ft | 182 kts | 90° |
| 2026-05-07 04:18 | 39.87707 | -104.56536 | 7732 ft | 198 kts | 90° |
| 2026-05-07 04:18 | 39.87689 | -104.54662 | 8088 ft | 216 kts | 90° |
| 2026-05-07 04:19 | 39.87661 | -104.52646 | 8421 ft | 236 kts | 90° |
| 2026-05-07 04:19 | 39.87621 | -104.50415 | 8728 ft | 260 kts | 90° |
| 2026-05-07 04:19 | 39.87584 | -104.47940 | 9083 ft | 286 kts | 89° |
| 2026-05-07 04:19 | 39.87554 | -104.45293 | 9763 ft | 298 kts | 89° |
| 2026-05-07 04:20 | 39.87528 | -104.42579 | 10060 ft | 303 kts | 88° |
| 2026-05-07 04:20 | 39.87503 | -104.39725 | 10335 ft | 328 kts | 88° |
| 2026-05-07 04:20 | 39.87471 | -104.36659 | 10646 ft | 349 kts | 88° |
| 2026-05-07 04:21 | 39.87408 | -104.31329 | 11848 ft | 358 kts | 88° |
| 2026-05-07 04:21 | 39.87364 | -104.27005 | 12870 ft | 363 kts | 88° |
| 2026-05-07 04:21 | 39.87334 | -104.23701 | 13671 ft | 366 kts | 87° |
| 2026-05-07 04:21 | 39.87316 | -104.20361 | 14329 ft | 372 kts | 86° |
| 2026-05-07 04:22 | 39.87331 | -104.16966 | 14952 ft | 377 kts | 86° |
| 2026-05-07 04:22 | 39.87350 | -104.13536 | 15614 ft | 381 kts | 86° |
| 2026-05-07 04:22 | 39.87350 | -104.11249 | 16055 ft | 383 kts | 87° |
| 2026-05-07 04:22 | 39.87326 | -104.07759 | 16725 ft | 387 kts | 87° |
| 2026-05-07 04:23 | 39.87287 | -104.04238 | 17395 ft | 391 kts | 88° |
| 2026-05-07 04:23 | 39.87243 | -103.99519 | 18246 ft | 397 kts | 88° |
| 2026-05-07 04:23 | 39.87210 | -103.95901 | 18842 ft | 401 kts | 87° |
| 2026-05-07 04:23 | 39.87181 | -103.92253 | 19427 ft | 405 kts | 87° |
| 2026-05-07 04:24 | 39.87333 | -103.88593 | 19995 ft | 407 kts | 81° |
| 2026-05-07 04:24 | 39.87505 | -103.86162 | 20374 ft | 409 kts | 81° |
| 2026-05-07 04:24 | 39.87763 | -103.82460 | 20968 ft | 412 kts | 82° |
| 2026-05-07 04:24 | 39.88022 | -103.78722 | 21536 ft | 416 kts | 82° |
| 2026-05-07 04:25 | 39.88282 | -103.74957 | 22090 ft | 420 kts | 82° |
| 2026-05-07 04:25 | 39.88687 | -103.69923 | 22784 ft | 424 kts | 79° |
| 2026-05-07 04:25 | 39.89101 | -103.66113 | 23303 ft | 427 kts | 78° |
| 2026-05-07 04:25 | 39.89415 | -103.63524 | 23649 ft | 429 kts | 77° |
| 2026-05-07 04:26 | 39.89902 | -103.59674 | 24080 ft | 433 kts | 77° |
| 2026-05-07 04:26 | 39.90386 | -103.55843 | 24498 ft | 436 kts | 77° |
| 2026-05-07 04:26 | 39.90866 | -103.51939 | 24926 ft | 439 kts | 78° |
| 2026-05-07 04:26 | 39.91335 | -103.47996 | 25345 ft | 442 kts | 78° |
| 2026-05-07 04:27 | 39.91789 | -103.44028 | 25762 ft | 445 kts | 78° |
| 2026-05-07 04:27 | 39.92234 | -103.40028 | 26168 ft | 448 kts | 79° |
| 2026-05-07 04:27 | 39.92678 | -103.36000 | 26585 ft | 451 kts | 79° |
| 2026-05-07 04:27 | 39.93125 | -103.31941 | 26998 ft | 454 kts | 79° |
| 2026-05-07 04:28 | 39.93573 | -103.27859 | 27401 ft | 457 kts | 79° |
| 2026-05-07 04:28 | 39.94026 | -103.23754 | 27790 ft | 460 kts | 79° |
| 2026-05-07 04:28 | 39.94478 | -103.19676 | 28182 ft | 462 kts | 79° |
| 2026-05-07 04:28 | 39.94941 | -103.15520 | 28576 ft | 465 kts | 79° |
| 2026-05-07 04:29 | 39.95405 | -103.11336 | 28956 ft | 468 kts | 79° |
| 2026-05-07 04:29 | 39.95871 | -103.07127 | 29323 ft | 471 kts | 79° |
| 2026-05-07 04:29 | 39.96339 | -103.02894 | 29691 ft | 473 kts | 79° |
| 2026-05-07 04:29 | 39.96806 | -102.98633 | 30054 ft | 476 kts | 79° |
| 2026-05-07 04:30 | 39.97273 | -102.94349 | 30379 ft | 479 kts | 79° |
| 2026-05-07 04:30 | 39.97741 | -102.90034 | 30662 ft | 482 kts | 79° |
| 2026-05-07 04:30 | 39.98210 | -102.85701 | 30945 ft | 484 kts | 79° |
| 2026-05-07 04:30 | 39.98675 | -102.81413 | 31312 ft | 484 kts | 79° |
| 2026-05-07 04:31 | 39.99141 | -102.77067 | 31711 ft | 484 kts | 80° |
| 2026-05-07 04:31 | 39.99602 | -102.72719 | 32087 ft | 484 kts | 80° |
| 2026-05-07 04:31 | 40.00063 | -102.68363 | 32476 ft | 484 kts | 80° |
| 2026-05-07 04:31 | 40.00524 | -102.64011 | 32868 ft | 484 kts | 80° |
| 2026-05-07 04:32 | 40.00987 | -102.59655 | 33251 ft | 485 kts | 80° |
| 2026-05-07 04:32 | 40.01449 | -102.55294 | 33633 ft | 485 kts | 80° |
| 2026-05-07 04:32 | 40.01907 | -102.50935 | 34022 ft | 486 kts | 80° |
| 2026-05-07 04:32 | 40.02357 | -102.46629 | 34369 ft | 486 kts | 80° |
| 2026-05-07 04:33 | 40.02810 | -102.42248 | 34670 ft | 488 kts | 80° |
| 2026-05-07 04:33 | 40.03265 | -102.37856 | 34940 ft | 490 kts | 80° |
| 2026-05-07 04:33 | 40.03722 | -102.33441 | 35211 ft | 491 kts | 81° |
| 2026-05-07 04:33 | 40.04176 | -102.29026 | 35483 ft | 493 kts | 81° |
| 2026-05-07 04:34 | 40.04632 | -102.24575 | 35739 ft | 495 kts | 81° |
| 2026-05-07 04:34 | 40.05091 | -102.20125 | 35992 ft | 497 kts | 81° |
| 2026-05-07 04:34 | 40.05546 | -102.15697 | 36246 ft | 498 kts | 81° |
| 2026-05-07 04:34 | 40.06003 | -102.11215 | 36499 ft | 500 kts | 81° |
| 2026-05-07 04:35 | 40.06459 | -102.06704 | 36743 ft | 502 kts | 81° |
| 2026-05-07 04:35 | 40.06916 | -102.02185 | 36981 ft | 503 kts | 81° |
| 2026-05-07 04:35 | 40.07372 | -101.97648 | 37128 ft | 505 kts | 82° |
| 2026-05-07 04:35 | 40.07823 | -101.93097 | 37160 ft | 506 kts | 82° |
| 2026-05-07 04:36 | 40.08721 | -101.83960 | 37154 ft | 508 kts | 82° |
| 2026-05-07 04:36 | 40.09622 | -101.74800 | 37150 ft | 509 kts | 82° |
| 2026-05-07 04:37 | 40.10519 | -101.65675 | 37151 ft | 511 kts | 82° |
| 2026-05-07 04:37 | 40.11415 | -101.56468 | 37145 ft | 512 kts | 82° |
| 2026-05-07 04:38 | 40.12300 | -101.47241 | 37139 ft | 512 kts | 82° |
| 2026-05-07 04:38 | 40.13164 | -101.37998 | 37132 ft | 513 kts | 85° |
| 2026-05-07 04:39 | 40.13349 | -101.28734 | 37130 ft | 514 kts | 90° |
| 2026-05-07 04:39 | 40.13442 | -101.19387 | 37132 ft | 515 kts | 90° |
| 2026-05-07 04:40 | 40.13542 | -101.10023 | 37136 ft | 516 kts | 90° |
| 2026-05-07 04:40 | 40.13637 | -101.00626 | 37139 ft | 517 kts | 90° |
| 2026-05-07 04:41 | 40.13719 | -100.91215 | 37118 ft | 519 kts | 90° |
| 2026-05-07 04:41 | 40.13787 | -100.81843 | 37114 ft | 520 kts | 91° |
| 2026-05-07 04:42 | 40.13853 | -100.72390 | 37114 ft | 521 kts | 91° |
| 2026-05-07 04:42 | 40.13914 | -100.62974 | 37109 ft | 522 kts | 91° |
| 2026-05-07 04:43 | 40.13961 | -100.53465 | 37109 ft | 523 kts | 91° |
| 2026-05-07 04:43 | 40.14001 | -100.43941 | 37113 ft | 525 kts | 91° |
| 2026-05-07 04:44 | 40.14038 | -100.34388 | 37117 ft | 526 kts | 91° |
| 2026-05-07 04:44 | 40.14063 | -100.24827 | 37105 ft | 527 kts | 91° |
| 2026-05-07 04:45 | 40.14083 | -100.15301 | 37106 ft | 528 kts | 91° |
| 2026-05-07 04:45 | 40.14091 | -100.05688 | 37104 ft | 529 kts | 92° |
| 2026-05-07 04:46 | 40.14095 | -99.96063 | 37108 ft | 531 kts | 92° |
| 2026-05-07 04:46 | 40.14096 | -99.86409 | 37119 ft | 532 kts | 92° |
| 2026-05-07 04:47 | 40.14080 | -99.76800 | 37124 ft | 533 kts | 92° |
| 2026-05-07 04:47 | 40.14057 | -99.67105 | 37126 ft | 534 kts | 92° |
| 2026-05-07 04:48 | 40.14026 | -99.57394 | 37121 ft | 535 kts | 92° |
| 2026-05-07 04:48 | 40.13988 | -99.47666 | 37121 ft | 536 kts | 92° |
| 2026-05-07 04:49 | 40.13949 | -99.37981 | 37114 ft | 537 kts | 93° |
| 2026-05-07 04:49 | 40.13901 | -99.28222 | 37116 ft | 538 kts | 93° |
| 2026-05-07 04:50 | 40.13833 | -99.18438 | 37117 ft | 538 kts | 93° |
| 2026-05-07 04:50 | 40.13755 | -99.08645 | 37119 ft | 539 kts | 93° |
| 2026-05-07 04:51 | 40.13676 | -98.98904 | 37114 ft | 541 kts | 94° |
| 2026-05-07 04:51 | 40.13586 | -98.89071 | 37116 ft | 542 kts | 94° |
| 2026-05-07 04:52 | 40.13492 | -98.79218 | 37115 ft | 543 kts | 94° |
| 2026-05-07 04:52 | 40.13398 | -98.69342 | 37118 ft | 544 kts | 94° |
| 2026-05-07 04:53 | 40.13291 | -98.59445 | 37117 ft | 545 kts | 94° |
| 2026-05-07 04:53 | 40.13159 | -98.49598 | 37115 ft | 546 kts | 94° |
| 2026-05-07 04:54 | 40.13023 | -98.39678 | 37109 ft | 547 kts | 94° |
| 2026-05-07 04:54 | 40.12885 | -98.29733 | 37108 ft | 547 kts | 94° |
| 2026-05-07 04:55 | 40.12740 | -98.19856 | 37102 ft | 548 kts | 95° |
| 2026-05-07 04:55 | 40.12590 | -98.09882 | 37102 ft | 549 kts | 95° |
| 2026-05-07 04:56 | 40.12424 | -97.99903 | 37095 ft | 550 kts | 95° |
| 2026-05-07 04:56 | 40.12258 | -97.89899 | 37095 ft | 551 kts | 95° |
| 2026-05-07 04:57 | 40.12077 | -97.79918 | 36753 ft | 555 kts | 95° |
| 2026-05-07 04:57 | 40.11979 | -97.74877 | 36505 ft | 556 kts | 95° |
| 2026-05-07 04:57 | 40.11878 | -97.69820 | 36256 ft | 557 kts | 95° |
| 2026-05-07 04:58 | 40.11773 | -97.64764 | 36014 ft | 558 kts | 96° |
| 2026-05-07 04:58 | 40.11667 | -97.59683 | 35772 ft | 560 kts | 96° |
| 2026-05-07 04:58 | 40.11563 | -97.54586 | 35535 ft | 561 kts | 96° |
| 2026-05-07 04:58 | 40.11455 | -97.49490 | 35295 ft | 562 kts | 96° |
| 2026-05-07 04:59 | 40.11347 | -97.44440 | 35062 ft | 564 kts | 96° |
| 2026-05-07 04:59 | 40.11234 | -97.39320 | 34815 ft | 565 kts | 96° |
| 2026-05-07 04:59 | 40.11121 | -97.34181 | 34391 ft | 565 kts | 96° |
| 2026-05-07 04:59 | 40.11006 | -97.29037 | 34194 ft | 568 kts | 96° |
| 2026-05-07 05:00 | 40.10885 | -97.23878 | 33930 ft | 569 kts | 96° |
| 2026-05-07 05:00 | 40.10758 | -97.18712 | 33659 ft | 569 kts | 96° |
| 2026-05-07 05:00 | 40.10633 | -97.13562 | 32695 ft | 567 kts | 95° |
| 2026-05-07 05:00 | 40.10504 | -97.08355 | 31382 ft | 578 kts | 95° |
| 2026-05-07 05:01 | 40.10379 | -97.03196 | 30962 ft | 555 kts | 95° |
| 2026-05-07 05:01 | 40.10271 | -96.98296 | 30224 ft | 542 kts | 94° |
| 2026-05-07 05:01 | 40.10168 | -96.93401 | 28850 ft | 538 kts | 94° |
| 2026-05-07 05:01 | 40.10043 | -96.88565 | 28009 ft | 524 kts | 95° |
| 2026-05-07 05:02 | 40.09909 | -96.83888 | 27303 ft | 509 kts | 95° |
| 2026-05-07 05:02 | 40.09771 | -96.79332 | 26595 ft | 495 kts | 95° |
| 2026-05-07 05:02 | 40.09639 | -96.74892 | 25912 ft | 484 kts | 95° |
| 2026-05-07 05:02 | 40.09511 | -96.70509 | 25225 ft | 483 kts | 95° |
| 2026-05-07 05:03 | 40.09385 | -96.66140 | 24553 ft | 481 kts | 95° |
| 2026-05-07 05:03 | 40.09260 | -96.61843 | 23896 ft | 478 kts | 95° |
| 2026-05-07 05:03 | 40.09043 | -96.57531 | 23216 ft | 473 kts | 101° |
| 2026-05-07 05:03 | 40.08385 | -96.53381 | 22768 ft | 459 kts | 110° |
| 2026-05-07 05:04 | 40.07499 | -96.49416 | 22457 ft | 453 kts | 110° |
| 2026-05-07 05:04 | 40.06630 | -96.45482 | 22090 ft | 449 kts | 110° |
| 2026-05-07 05:04 | 40.05772 | -96.41580 | 21734 ft | 447 kts | 110° |
| 2026-05-07 05:04 | 40.04919 | -96.37691 | 21384 ft | 445 kts | 110° |
| 2026-05-07 05:05 | 40.04068 | -96.33820 | 21032 ft | 442 kts | 110° |
| 2026-05-07 05:05 | 40.03221 | -96.29972 | 20681 ft | 440 kts | 110° |
| 2026-05-07 05:05 | 40.02384 | -96.26195 | 20343 ft | 438 kts | 110° |
| 2026-05-07 05:05 | 40.01536 | -96.22390 | 19990 ft | 436 kts | 110° |
| 2026-05-07 05:06 | 40.00690 | -96.18607 | 19645 ft | 434 kts | 110° |
| 2026-05-07 05:06 | 39.99844 | -96.14839 | 19312 ft | 432 kts | 110° |
| 2026-05-07 05:06 | 39.99000 | -96.11088 | 18964 ft | 430 kts | 110° |
| 2026-05-07 05:06 | 39.98162 | -96.07357 | 18627 ft | 428 kts | 110° |
| 2026-05-07 05:07 | 39.97330 | -96.03648 | 18278 ft | 426 kts | 110° |
| 2026-05-07 05:07 | 39.96500 | -95.99955 | 17823 ft | 423 kts | 110° |
| 2026-05-07 05:07 | 39.95685 | -95.96336 | 17487 ft | 420 kts | 110° |
| 2026-05-07 05:07 | 39.94866 | -95.92699 | 17159 ft | 418 kts | 110° |
| 2026-05-07 05:08 | 39.94049 | -95.89075 | 16823 ft | 415 kts | 109° |
| 2026-05-07 05:08 | 39.93234 | -95.85477 | 16500 ft | 413 kts | 109° |
| 2026-05-07 05:08 | 39.92422 | -95.81898 | 16171 ft | 411 kts | 109° |
| 2026-05-07 05:08 | 39.91613 | -95.78348 | 15853 ft | 408 kts | 109° |
| 2026-05-07 05:09 | 39.90805 | -95.74812 | 15531 ft | 406 kts | 109° |
| 2026-05-07 05:09 | 39.90004 | -95.71300 | 15211 ft | 404 kts | 109° |
| 2026-05-07 05:09 | 39.89206 | -95.67804 | 14887 ft | 401 kts | 109° |
| 2026-05-07 05:09 | 39.88423 | -95.64378 | 14587 ft | 399 kts | 109° |
| 2026-05-07 05:10 | 39.87629 | -95.60922 | 14273 ft | 397 kts | 109° |
| 2026-05-07 05:10 | 39.86841 | -95.57490 | 13958 ft | 395 kts | 109° |
| 2026-05-07 05:10 | 39.86057 | -95.54077 | 13629 ft | 392 kts | 108° |
| 2026-05-07 05:10 | 39.85278 | -95.50680 | 13311 ft | 390 kts | 108° |
| 2026-05-07 05:11 | 39.84506 | -95.47321 | 13009 ft | 386 kts | 108° |
| 2026-05-07 05:11 | 39.83736 | -95.43990 | 12705 ft | 382 kts | 108° |
| 2026-05-07 05:11 | 39.82973 | -95.40695 | 12403 ft | 379 kts | 107° |
| 2026-05-07 05:11 | 39.82027 | -95.37574 | 12111 ft | 374 kts | 118° |
| 2026-05-07 05:12 | 39.80642 | -95.34733 | 11656 ft | 370 kts | 128° |
| 2026-05-07 05:12 | 39.78899 | -95.32291 | 10704 ft | 367 kts | 137° |
| 2026-05-07 05:12 | 39.77064 | -95.30068 | 10313 ft | 351 kts | 136° |
| 2026-05-07 05:12 | 39.75320 | -95.27946 | 10184 ft | 336 kts | 136° |
| 2026-05-07 05:13 | 39.73645 | -95.25896 | 9953 ft | 326 kts | 136° |
| 2026-05-07 05:13 | 39.72027 | -95.23913 | 9809 ft | 314 kts | 135° |
| 2026-05-07 05:13 | 39.70484 | -95.22019 | 9672 ft | 305 kts | 135° |
| 2026-05-07 05:13 | 39.68966 | -95.20154 | 9540 ft | 296 kts | 135° |
| 2026-05-07 05:14 | 39.67497 | -95.18347 | 9344 ft | 286 kts | 135° |
| 2026-05-07 05:14 | 39.66087 | -95.16612 | 9071 ft | 274 kts | 135° |
| 2026-05-07 05:14 | 39.64722 | -95.14940 | 8803 ft | 267 kts | 135° |
| 2026-05-07 05:14 | 39.63380 | -95.13298 | 8540 ft | 264 kts | 136° |
| 2026-05-07 05:15 | 39.62046 | -95.11666 | 8284 ft | 262 kts | 136° |
| 2026-05-07 05:15 | 39.60755 | -95.10003 | 8009 ft | 260 kts | 129° |
| 2026-05-07 05:15 | 39.60392 | -95.09410 | 7930 ft | 259 kts | 124° |
| 2026-05-07 05:15 | 39.59967 | -95.08585 | 7836 ft | 258 kts | 119° |
| 2026-05-07 05:16 | 39.59212 | -95.06495 | 7573 ft | 255 kts | 107° |
| 2026-05-07 05:16 | 39.58628 | -95.04324 | 7317 ft | 254 kts | 107° |
| 2026-05-07 05:16 | 39.58043 | -95.02172 | 7064 ft | 253 kts | 107° |
| 2026-05-07 05:16 | 39.57455 | -95.00029 | 6816 ft | 252 kts | 107° |
| 2026-05-07 05:17 | 39.56869 | -94.97895 | 6568 ft | 251 kts | 108° |
| 2026-05-07 05:17 | 39.56285 | -94.95767 | 6299 ft | 250 kts | 108° |
| 2026-05-07 05:17 | 39.55713 | -94.93682 | 6052 ft | 248 kts | 108° |
| 2026-05-07 05:17 | 39.55136 | -94.91581 | 5806 ft | 247 kts | 108° |
| 2026-05-07 05:18 | 39.54561 | -94.89488 | 5557 ft | 246 kts | 108° |
| 2026-05-07 05:18 | 39.53991 | -94.87422 | 5316 ft | 240 kts | 108° |
| 2026-05-07 05:18 | 39.53443 | -94.85420 | 5073 ft | 232 kts | 108° |
| 2026-05-07 05:18 | 39.52916 | -94.83473 | 4843 ft | 226 kts | 108° |
| 2026-05-07 05:19 | 39.52407 | -94.81582 | 4616 ft | 219 kts | 107° |
| 2026-05-07 05:19 | 39.51911 | -94.79748 | 4424 ft | 211 kts | 107° |
| 2026-05-07 05:19 | 39.51440 | -94.78011 | 4399 ft | 201 kts | 107° |
| 2026-05-07 05:19 | 39.50985 | -94.76337 | 4280 ft | 199 kts | 107° |
| 2026-05-07 05:20 | 39.50529 | -94.74651 | 4193 ft | 198 kts | 107° |
| 2026-05-07 05:20 | 39.50049 | -94.72980 | 4102 ft | 199 kts | 114° |
| 2026-05-07 05:20 | 39.49260 | -94.71512 | 4022 ft | 200 kts | 133° |
| 2026-05-07 05:20 | 39.48152 | -94.70435 | 3866 ft | 200 kts | 152° |
| 2026-05-07 05:21 | 39.46850 | -94.69830 | 3697 ft | 199 kts | 165° |
| 2026-05-07 05:21 | 39.44217 | -94.68875 | 3378 ft | 197 kts | 172° |
| 2026-05-07 05:21 | 39.42862 | -94.68923 | 3232 ft | 194 kts | 193° |
| 2026-05-07 05:22 | 39.41598 | -94.69296 | 2999 ft | 178 kts | 195° |
| 2026-05-07 05:22 | 39.40465 | -94.69632 | 2782 ft | 156 kts | 195° |
| 2026-05-07 05:22 | 39.39455 | -94.69932 | 2580 ft | 144 kts | 195° |
| 2026-05-07 05:22 | 39.38493 | -94.70218 | 2385 ft | 140 kts | 195° |
| 2026-05-07 05:23 | 39.37557 | -94.70496 | 2204 ft | 137 kts | 195° |
| 2026-05-07 05:23 | 39.36637 | -94.70769 | 1996 ft | 135 kts | 195° |
| 2026-05-07 05:23 | 39.35748 | -94.71042 | 1792 ft | 131 kts | 196° |
| 2026-05-07 05:23 | 39.34874 | -94.71326 | 1604 ft | 128 kts | 196° |
| 2026-05-07 05:24 | 39.34018 | -94.71588 | 1410 ft | 125 kts | 194° |
| 2026-05-07 05:24 | 39.33171 | -94.71826 | 1230 ft | 124 kts | 193° |
| 2026-05-07 05:24 | 39.32336 | -94.72059 | 1079 ft | 122 kts | 189° |
| 2026-05-07 05:24 | 39.31550 | -94.72286 | 998 ft | 100 kts | 188° |
| 2026-05-07 05:25 | 39.31019 | -94.72428 | 1003 ft | 59 kts | 193° |
| 2026-05-07 05:25 | 39.30811 | -94.72401 | 1005 ft | 15 kts | 158° |
| 2026-05-07 05:25 | 39.30720 | -94.72361 | 1006 ft | 11 kts | 168° |
| 2026-05-07 05:25 | 39.30641 | -94.72374 | 1007 ft | 13 kts | 198° |
| 2026-05-07 05:26 | 39.30549 | -94.72408 | 1008 ft | 15 kts | 194° |
| 2026-05-07 05:26 | 39.30519 | -94.72418 | 1008 ft | 0 kts | 195° |
| 2026-05-07 05:26 | 39.30515 | -94.72420 | 1008 ft | 4 kts | 194° |
| 2026-05-07 05:26 | 39.30471 | -94.72432 | 1009 ft | 9 kts | 192° |
| 2026-05-07 05:27 | 39.30386 | -94.72455 | 1010 ft | 15 kts | 194° |
| 2026-05-07 05:27 | 39.30284 | -94.72459 | 1011 ft | 16 kts | 135° |
| 2026-05-07 05:27 | 39.30218 | -94.72372 | 1012 ft | 13 kts | 140° |
| 2026-05-07 05:27 | 39.30188 | -94.72283 | 1012 ft | 10 kts | 103° |
| 2026-05-07 05:28 | 39.30170 | -94.72180 | 1012 ft | 13 kts | 103° |
| 2026-05-07 05:28 | 39.30141 | -94.72078 | 1012 ft | 12 kts | 130° |
| 2026-05-07 05:28 | 39.30093 | -94.72058 | 1013 ft | 6 kts | 192° |
| 2026-05-07 05:28 | 39.30058 | -94.72069 | 1013 ft | 4 kts | 199° |
| 2026-05-07 05:29 | 39.30047 | -94.72105 | 1014 ft | 5 kts | 269° |
| 2026-05-07 05:29 | 39.30054 | -94.72142 | 1014 ft | 3 kts | 283° |
| 2026-05-07 05:29 | 39.30056 | -94.72152 | 1014 ft | 0 kts | 283° |